Time;durP1;ratioP1;P1;durP2;ratioP2;P2;SDS_P1;SDS_P2;PMS_P1;PMS_P2;Temp;Humidity;BMP_temperature;BMP_pressure;BME280_temperature;BME280_humidity;BME280_pressure;Samples;Min_cycle;Max_cycle;Signal;HPM_P1;HPM_P2
2022/05/11 00:01:13;;;;;;;4.17;3.77;;;;;;;18.25;59.61;94976.44;5095367;28;20193;-82
2022/05/11 00:03:41;;;;;;;4.87;3.87;;;;;;;18.22;59.61;94982.78;5094099;28;20189;-83
2022/05/11 00:06:08;;;;;;;5.00;4.00;;;;;;;18.19;59.75;94972.00;5094850;28;20281;-84
2022/05/11 00:08:35;;;;;;;6.07;4.23;;;;;;;17.80;59.45;94927.22;5090012;28;20644;-82
2022/05/11 00:11:04;;;;;;;8.17;4.00;;;;;;;18.14;59.17;94989.84;5074445;28;20194;-82
2022/05/11 00:13:31;;;;;;;3.83;3.53;;;;;;;17.38;59.25;94863.09;5074669;28;20284;-85
2022/05/11 00:15:58;;;;;;;4.73;4.17;;;;;;;18.10;59.06;94986.78;5074495;28;20187;-81
2022/05/11 00:18:25;;;;;;;5.33;3.90;;;;;;;18.08;59.05;94980.19;5074987;28;20198;-83
2022/05/11 00:20:52;;;;;;;3.93;3.50;;;;;;;17.76;58.91;94935.53;5076518;28;20202;-82
2022/05/11 00:23:19;;;;;;;4.47;3.77;;;;;;;18.02;59.10;94966.97;5079590;28;20574;-83
2022/05/11 00:25:46;;;;;;;4.33;3.93;;;;;;;18.00;59.18;94970.69;5095995;28;20225;-83
2022/05/11 00:28:14;;;;;;;5.10;4.27;;;;;;;17.98;58.99;94965.72;5092473;28;20190;-82
2022/05/11 00:30:41;;;;;;;3.67;3.00;;;;;;;17.79;58.99;94940.34;5093796;28;20182;-82
2022/05/11 00:33:08;;;;;;;5.63;3.57;;;;;;;17.76;59.04;94931.16;5079666;28;20193;-81
2022/05/11 00:35:36;;;;;;;8.97;3.70;;;;;;;17.14;59.11;94846.03;5073441;28;20557;-83
2022/05/11 00:38:04;;;;;;;4.00;3.60;;;;;;;17.88;59.23;94956.59;5073713;28;20699;-84
2022/05/11 00:40:32;;;;;;;5.10;4.57;;;;;;;17.77;59.07;94942.28;5073248;28;20200;-84
2022/05/11 00:42:59;;;;;;;4.87;3.70;;;;;;;17.83;59.17;94946.75;5076009;28;20197;-82
2022/05/11 00:45:28;;;;;;;5.20;3.57;;;;;;;16.21;59.01;94696.44;5096665;28;20249;-83
2022/05/11 00:47:59;;;;;;;5.57;3.67;;;;;;;17.76;59.28;94944.09;5093553;28;20189;-84
2022/05/11 00:50:28;;;;;;;3.73;3.43;;;;;;;17.58;59.09;94922.09;5093308;28;20189;-83
2022/05/11 00:52:58;;;;;;;5.00;3.70;;;;;;;17.20;59.22;94872.94;5097022;28;20323;-82
2022/05/11 00:55:31;;;;;;;5.57;3.80;;;;;;;17.19;59.48;94881.69;5093434;28;20232;-83
2022/05/11 00:58:03;;;;;;;5.13;3.97;;;;;;;17.68;59.65;94964.00;5093575;28;20197;-82
2022/05/11 01:00:31;;;;;;;4.00;3.57;;;;;;;17.62;59.75;94955.19;5093103;28;20196;-83
2022/05/11 01:03:02;;;;;;;4.20;3.80;;;;;;;17.63;59.49;94958.56;5092364;28;20186;-83
2022/05/11 01:05:30;;;;;;;4.63;3.87;;;;;;;17.39;59.74;94926.72;5093514;28;20232;-84
2022/05/11 01:07:58;;;;;;;6.73;3.80;;;;;;;17.59;59.76;94963.28;5091265;28;20236;-84
2022/05/11 01:10:27;;;;;;;3.83;3.27;;;;;;;16.72;60.06;94839.53;5074658;28;20202;-81
2022/05/11 01:12:57;;;;;;;4.07;3.30;;;;;;;17.20;59.65;94917.69;5072787;28;20680;-83
2022/05/11 01:15:26;;;;;;;4.63;3.13;;;;;;;17.52;59.90;94980.44;5075090;28;20186;-82
2022/05/11 01:17:55;;;;;;;4.63;3.47;;;;;;;17.02;60.02;94899.88;5075876;28;20673;-83
2022/05/11 01:20:24;;;;;;;5.07;3.57;;;;;;;17.47;60.08;94985.34;5073162;28;20277;-83
2022/05/11 01:23:00;;;;;;;7.50;4.00;;;;;;;17.16;60.16;94928.53;5073611;28;20197;-83
2022/05/11 01:25:29;;;;;;;7.50;3.40;;;;;;;17.12;59.99;94924.69;5073605;28;20252;-83
2022/05/11 01:28:05;;;;;;;3.77;3.40;;;;;;;16.44;60.23;94815.94;5073322;28;20205;-84
2022/05/11 01:30:33;;;;;;;4.10;3.30;;;;;;;17.00;60.06;94903.59;5076126;28;20190;-81
2022/05/11 01:32:59;;;;;;;7.50;3.33;;;;;;;16.99;60.33;94909.75;5071685;28;20224;-83
2022/05/11 01:35:37;;;;;;;4.17;3.20;;;;;;;17.18;60.31;94935.13;5072326;28;20190;-82
2022/05/11 01:38:13;;;;;;;4.40;3.30;;;;;;;17.33;60.47;94957.66;5073264;28;20673;-81
2022/05/11 01:40:42;;;;;;;4.30;3.70;;;;;;;16.91;60.30;94909.78;5072050;28;20676;-82
2022/05/11 01:43:15;;;;;;;4.67;3.23;;;;;;;17.30;60.57;94966.56;5072033;28;20198;-82
2022/05/11 01:45:42;;;;;;;3.97;3.47;;;;;;;17.29;60.49;94964.94;5072158;28;20269;-82
2022/05/11 01:48:09;;;;;;;5.77;3.43;;;;;;;17.27;60.31;94965.13;5072487;28;20178;-81
2022/05/11 01:50:36;;;;;;;6.97;4.30;;;;;;;16.61;60.54;94857.16;5072931;28;20213;-82
2022/05/11 01:53:04;;;;;;;5.83;3.40;;;;;;;17.23;60.47;94970.81;5072699;28;20194;-82
2022/05/11 01:55:31;;;;;;;5.10;4.03;;;;;;;17.22;60.57;94967.41;5071739;28;20661;-82
2022/05/11 01:57:59;;;;;;;7.40;3.20;;;;;;;16.27;60.52;94824.75;5071753;28;20194;-83
2022/05/11 02:00:26;;;;;;;4.23;3.27;;;;;;;17.01;60.48;94938.78;5073004;28;20194;-83
2022/05/11 02:02:53;;;;;;;5.27;3.23;;;;;;;17.16;60.19;94962.94;5071921;28;20626;-82
2022/05/11 02:08:05;;;;;;;4.93;3.17;;;;;;;17.13;60.34;94965.84;5071872;28;20189;-83
2022/05/11 02:10:32;;;;;;;5.53;3.40;;;;;;;16.99;59.80;94943.34;5072974;28;20186;-83
2022/05/11 02:13:00;;;;;;;5.00;3.07;;;;;;;17.10;60.19;94966.22;5071564;28;20205;-83
2022/05/11 02:15:28;;;;;;;3.70;3.20;;;;;;;16.94;59.86;94940.47;5071807;28;20228;-84
2022/05/11 02:17:55;;;;;;;4.23;3.47;;;;;;;16.64;59.97;94903.31;5071694;28;20190;-82
2022/05/11 02:20:23;;;;;;;3.90;3.60;;;;;;;16.72;59.98;94911.84;5072488;28;20198;-83
2022/05/11 02:22:50;;;;;;;4.63;3.47;;;;;;;16.47;59.84;94881.94;5071572;28;20203;-82
2022/05/11 02:25:18;;;;;;;3.30;3.10;;;;;;;17.00;59.86;94966.41;5071374;28;20244;-82
2022/05/11 02:27:50;;;;;;;3.70;3.10;;;;;;;16.56;60.02;94897.22;5071551;28;20190;-83
2022/05/11 02:30:20;;;;;;;3.30;3.07;;;;;;;16.97;59.98;94960.81;5088522;28;20354;-82
2022/05/11 02:32:47;;;;;;;3.97;3.50;;;;;;;16.97;60.03;94958.22;5076976;28;20186;-82
2022/05/11 02:35:16;;;;;;;6.93;3.63;;;;;;;16.95;60.20;94955.78;5072828;28;20190;-82
2022/05/11 02:37:46;;;;;;;4.53;3.60;;;;;;;16.94;60.36;94949.03;5070926;28;20190;-82
2022/05/11 02:40:16;;;;;;;4.87;3.90;;;;;;;16.70;60.23;94916.34;5080437;28;20190;-83
2022/05/11 02:42:42;;;;;;;3.73;3.33;;;;;;;15.65;60.21;94757.66;5090903;28;20211;-84
2022/05/11 02:45:11;;;;;;;4.07;3.67;;;;;;;16.90;60.71;94950.34;5072079;28;20182;-81
2022/05/11 02:47:40;;;;;;;4.47;3.03;;;;;;;16.89;60.58;94953.91;5070880;28;20775;-84
2022/05/11 02:50:09;;;;;;;4.30;3.13;;;;;;;16.89;60.62;94966.00;5071268;28;20183;-84
2022/05/11 02:52:36;;;;;;;3.50;3.20;;;;;;;16.88;60.56;94967.78;5071656;28;20221;-82
2022/05/11 02:55:04;;;;;;;6.63;3.53;;;;;;;16.44;60.60;94898.56;5071095;28;20269;-83
2022/05/11 02:57:31;;;;;;;4.70;3.47;;;;;;;16.85;60.68;94962.97;5070834;28;20212;-81
2022/05/11 02:59:59;;;;;;;3.80;3.43;;;;;;;16.84;60.65;94976.03;5071248;28;20186;-83
2022/05/11 03:02:27;;;;;;;4.80;3.53;;;;;;;16.85;60.89;94975.06;5071674;28;20191;-85
2022/05/11 03:04:55;;;;;;;10.47;3.60;;;;;;;16.85;61.04;94975.06;5075147;28;20195;-82
2022/05/11 03:07:22;;;;;;;5.80;3.60;;;;;;;16.73;61.07;94956.56;5076790;28;20233;-83
2022/05/11 03:09:49;;;;;;;6.60;3.50;;;;;;;16.84;61.09;94979.44;5073875;28;20221;-83
2022/05/11 03:12:16;;;;;;;3.70;3.13;;;;;;;16.84;61.16;94979.44;5071108;28;20276;-83
2022/05/11 03:14:43;;;;;;;5.30;3.50;;;;;;;16.83;61.29;94974.41;5070818;28;20194;-82
2022/05/11 03:17:10;;;;;;;3.90;3.50;;;;;;;16.84;61.45;94984.59;5071260;28;20190;-81
2022/05/11 03:19:38;;;;;;;4.37;3.23;;;;;;;16.85;61.45;94982.81;5070601;28;20182;-82
2022/05/11 03:22:06;;;;;;;3.97;3.57;;;;;;;16.72;61.62;94970.41;5070473;28;20621;-82
2022/05/11 03:24:33;;;;;;;3.93;3.63;;;;;;;16.86;61.56;94994.75;5074773;28;20177;-82
2022/05/11 03:27:00;;;;;;;3.70;3.13;;;;;;;16.73;61.73;94967.69;5074027;28;20596;-82
2022/05/11 03:29:26;;;;;;;5.97;3.80;;;;;;;16.89;61.67;95000.41;5069957;28;20656;-83
2022/05/11 03:34:38;;;;;;;5.13;3.43;;;;;;;16.90;61.76;94989.09;5069410;28;20569;-83
2022/05/11 03:37:07;;;;;;;6.43;3.67;;;;;;;16.92;61.74;94988.91;5071636;28;20201;-80
2022/05/11 03:39:34;;;;;;;4.70;3.77;;;;;;;16.92;61.93;94992.28;5070213;28;20194;-81
2022/05/11 03:42:01;;;;;;;3.60;3.30;;;;;;;16.95;61.81;94989.38;5070324;28;20252;-81
2022/05/11 03:44:29;;;;;;;6.97;3.17;;;;;;;16.80;61.72;94966.06;5070448;28;20189;-82
2022/05/11 03:46:56;;;;;;;3.90;3.33;;;;;;;16.99;61.57;94984.69;5071916;28;20221;-81
2022/05/11 03:49:23;;;;;;;3.83;3.30;;;;;;;16.24;61.53;94877.53;5070463;28;20665;-81
2022/05/11 03:51:51;;;;;;;3.63;3.30;;;;;;;17.01;61.49;94993.88;5084872;28;20231;-81
2022/05/11 03:54:19;;;;;;;3.10;2.90;;;;;;;17.03;61.40;94994.50;5090973;28;20259;-82
2022/05/11 03:56:46;;;;;;;6.57;3.87;;;;;;;16.72;61.29;94947.19;5073330;28;20188;-83
2022/05/11 03:59:13;;;;;;;3.80;3.17;;;;;;;17.09;61.46;95002.53;5077395;28;20205;-82
2022/05/11 04:01:40;;;;;;;5.77;4.00;;;;;;;16.11;61.13;94842.91;5078284;28;20212;-80
2022/05/11 04:04:07;;;;;;;3.67;3.30;;;;;;;16.80;61.13;94954.91;5094019;28;20200;-82
2022/05/11 04:06:34;;;;;;;5.23;3.97;;;;;;;16.82;61.15;94949.56;5101064;28;20232;-82
2022/05/11 04:09:01;;;;;;;6.43;3.90;;;;;;;17.22;61.27;95006.19;5077415;28;20201;-85
2022/05/11 04:11:30;;;;;;;4.87;3.57;;;;;;;17.25;61.09;94997.28;5072956;28;20277;-83
2022/05/11 04:13:58;;;;;;;4.00;3.60;;;;;;;17.29;61.31;95011.47;5070624;28;20205;-83
2022/05/11 04:16:25;;;;;;;4.73;4.07;;;;;;;17.31;61.19;95009.50;5070382;28;20194;-81
2022/05/11 04:18:52;;;;;;;4.60;3.80;;;;;;;17.34;61.60;95019.53;5072202;28;20248;-84
2022/05/11 04:21:19;;;;;;;5.27;3.77;;;;;;;17.35;62.18;95020.31;5083108;28;20193;-83
2022/05/11 04:23:46;;;;;;;7.67;4.57;;;;;;;16.83;62.21;94936.47;5089826;28;20561;-82
2022/05/11 04:26:14;;;;;;;5.23;4.70;;;;;;;17.03;61.94;94960.13;5090136;28;20600;-83
2022/05/11 04:28:44;;;;;;;4.77;4.37;;;;;;;17.48;61.68;95029.13;5086121;28;20193;-82
2022/05/11 04:31:13;;;;;;;5.53;4.73;;;;;;;17.56;61.40;95041.19;5087526;28;20186;-83
2022/05/11 04:33:40;;;;;;;7.27;4.37;;;;;;;17.43;61.14;95008.16;5094168;28;20634;-83
2022/05/11 04:36:08;;;;;;;4.87;4.33;;;;;;;17.66;60.69;95035.78;5091309;28;20277;-83
2022/05/11 04:38:35;;;;;;;5.10;4.63;;;;;;;17.45;60.61;94995.06;5092675;28;20194;-84
2022/05/11 04:41:03;;;;;;;4.77;4.27;;;;;;;17.80;60.34;95043.66;5093568;28;20197;-83
2022/05/11 04:43:29;;;;;;;6.07;4.57;;;;;;;17.47;60.22;94978.38;5069546;28;20191;-80
2022/05/11 04:45:58;;;;;;;7.57;4.80;;;;;;;17.95;59.99;95046.28;5077836;28;20235;-81
2022/05/11 04:48:26;;;;;;;5.37;4.50;;;;;;;18.01;60.01;95049.97;5093725;28;20228;-83
2022/05/11 04:50:53;;;;;;;7.07;4.50;;;;;;;17.97;59.99;95021.03;5094440;28;20656;-82
2022/05/11 04:53:20;;;;;;;4.67;4.20;;;;;;;18.22;60.36;95021.63;5094984;28;20189;-84
2022/05/11 04:55:48;;;;;;;19.53;10.13;;;;;;;18.73;78.48;95039.88;5092657;28;20284;-84
2022/05/11 04:58:15;;;;;;;37.30;19.90;;;;;;;19.27;83.18;95041.34;5092044;28;20208;-84
2022/05/11 05:00:41;;;;;;;40.37;23.23;;;;;;;19.74;83.26;95035.69;5091809;28;20189;-85
2022/05/11 05:03:11;;;;;;;36.43;20.07;;;;;;;20.31;80.98;95031.34;5090081;28;20187;-80
2022/05/11 05:05:39;;;;;;;30.60;15.30;;;;;;;21.00;77.73;95046.94;5093123;28;20600;-80
2022/05/11 05:08:07;;;;;;;24.90;13.67;;;;;;;21.59;73.55;95050.78;5082156;28;20206;-90
2022/05/11 05:10:37;;;;;;;17.30;10.50;;;;;;;22.16;69.10;95054.69;5088199;28;20243;-93
2022/05/11 05:13:06;;;;;;;15.30;8.27;;;;;;;22.63;66.04;95047.63;5090794;28;20194;-80
2022/05/11 05:15:36;;;;;;;13.75;7.38;;;;;;;23.21;63.42;95045.06;5092375;28;20193;-76
2022/05/11 05:18:03;;;;;;;11.60;5.57;;;;;;;23.82;61.35;95053.41;5092661;28;20190;-75
2022/05/11 05:20:32;;;;;;;8.38;5.00;;;;;;;24.49;59.34;95050.13;5092031;28;20628;-77
2022/05/11 05:22:59;;;;;;;9.82;4.30;;;;;;;25.01;57.18;95026.25;5092164;28;20190;-78
2022/05/11 05:25:26;;;;;;;8.73;4.25;;;;;;;25.80;54.57;95042.78;5091742;28;20194;-76
2022/05/11 05:31:04;;;;;;;5.00;3.53;;;;;;;26.62;52.71;95063.91;5091891;28;20232;-76
2022/05/11 05:33:27;;;;;;;5.85;3.85;;;;;;;28.25;48.43;95066.28;5091856;28;20196;-76
2022/05/11 05:35:56;;;;;;;4.13;3.20;;;;;;;28.87;46.51;95065.38;5092241;28;20242;-77
2022/05/11 05:38:23;;;;;;;5.72;3.40;;;;;;;29.51;44.73;95068.31;5090518;28;20577;-76
2022/05/11 05:40:50;;;;;;;9.85;3.30;;;;;;;30.17;43.61;95076.91;5091566;28;20627;-77
2022/05/11 05:43:17;;;;;;;8.85;4.05;;;;;;;30.69;42.02;95072.81;5092408;28;20182;-79
2022/05/11 05:45:48;;;;;;;5.03;3.75;;;;;;;31.30;40.73;95081.13;5091751;28;20194;-78
2022/05/11 05:48:23;;;;;;;4.80;3.10;;;;;;;31.87;39.41;95082.94;5092334;28;20607;-78
2022/05/11 05:50:50;;;;;;;3.50;3.10;;;;;;;32.41;38.35;95086.97;5091938;28;20189;-77
2022/05/11 05:53:19;;;;;;;5.78;3.33;;;;;;;32.92;37.37;95100.19;5091917;28;20196;-77
2022/05/11 05:55:48;;;;;;;4.55;3.08;;;;;;;33.40;36.58;95101.34;5091852;28;20185;-77
2022/05/11 05:58:14;;;;;;;5.53;3.20;;;;;;;33.88;35.47;95103.53;5090934;28;20805;-80
2022/05/11 06:00:41;;;;;;;4.60;3.80;;;;;;;34.33;34.59;95107.81;5091486;28;20193;-77
2022/05/11 06:03:08;;;;;;;5.57;3.75;;;;;;;34.65;34.10;95090.56;5091737;28;20196;-77
2022/05/11 06:05:35;;;;;;;5.70;3.42;;;;;;;35.17;33.32;95112.94;5091206;28;20275;-77
2022/05/11 06:08:02;;;;;;;4.88;3.22;;;;;;;35.57;32.80;95105.56;5091423;28;20213;-75
2022/05/11 06:10:30;;;;;;;7.40;3.45;;;;;;;35.98;32.18;95113.06;5091546;28;20188;-76
2022/05/11 06:12:57;;;;;;;8.77;3.50;;;;;;;36.36;31.76;95113.84;5091468;28;20190;-76
2022/05/11 06:15:25;;;;;;;5.53;3.50;;;;;;;36.73;31.30;95107.63;5091159;28;20189;-77
2022/05/11 06:17:52;;;;;;;6.93;3.22;;;;;;;37.08;30.61;95110.78;5091194;28;20788;-76
2022/05/11 06:20:19;;;;;;;7.35;3.50;;;;;;;37.43;29.90;95122.66;5091081;28;20198;-76
2022/05/11 06:22:45;;;;;;;5.50;2.90;;;;;;;37.75;29.82;95119.09;5091002;28;20190;-76
2022/05/11 06:25:12;;;;;;;5.80;2.90;;;;;;;37.92;29.39;95097.13;5091118;28;20197;-77
2022/05/11 06:27:40;;;;;;;3.92;2.85;;;;;;;38.33;28.77;95113.03;5090858;28;20261;-77
2022/05/11 06:30:09;;;;;;;5.07;2.80;;;;;;;38.65;28.21;95124.59;5091392;28;20205;-77
2022/05/11 06:32:36;;;;;;;6.03;2.53;;;;;;;38.88;27.87;95112.00;5086329;28;20193;-79
2022/05/11 06:35:03;;;;;;;3.88;2.60;;;;;;;38.92;27.36;95080.84;5070783;28;20278;-77
2022/05/11 06:37:30;;;;;;;3.78;2.83;;;;;;;39.45;27.03;95125.47;5081026;28;20276;-77
2022/05/11 06:39:58;;;;;;;5.10;2.65;;;;;;;39.68;26.72;95120.03;5085747;28;20193;-76
2022/05/11 06:42:25;;;;;;;4.18;2.65;;;;;;;39.93;26.57;95121.97;5089835;28;20197;-76
2022/05/11 06:44:53;;;;;;;2.95;2.50;;;;;;;40.14;25.95;95116.81;5090372;28;20196;-77
2022/05/11 06:47:21;;;;;;;4.30;2.58;;;;;;;40.23;25.42;95103.41;5087163;28;20201;-77
2022/05/11 06:49:49;;;;;;;4.05;2.53;;;;;;;40.46;25.09;95104.81;5084358;28;20190;-77
2022/05/11 06:52:17;;;;;;;3.88;2.70;;;;;;;40.45;25.07;95095.19;5085045;28;20233;-75
2022/05/11 07:00:18;;;;;;;2.55;2.22;;;;;;;40.78;24.36;95081.25;5078702;28;20629;-77
2022/05/11 07:02:44;;;;;;;4.05;2.58;;;;;;;41.07;24.16;95112.78;5087621;28;20568;-77
2022/05/11 07:05:11;;;;;;;3.38;2.47;;;;;;;41.19;24.05;95112.84;5078550;28;20201;-77
2022/05/11 07:07:39;;;;;;;3.72;2.10;;;;;;;41.10;23.49;95075.31;5082629;28;20228;-77
2022/05/11 07:10:07;;;;;;;2.70;2.50;;;;;;;41.35;23.52;95100.47;5077757;28;20195;-77
2022/05/11 07:12:35;;;;;;;2.20;1.90;;;;;;;41.55;23.11;95117.00;5087378;28;20218;-79
2022/05/11 07:15:05;;;;;;;6.05;2.22;;;;;;;41.65;22.97;95119.28;5080769;28;20204;-77
2022/05/11 07:17:35;;;;;;;3.40;2.60;;;;;;;41.75;23.14;95110.84;5084921;28;20190;-78
2022/05/11 07:20:05;;;;;;;2.67;2.10;;;;;;;41.52;23.00;95070.06;5072275;28;20182;-78
2022/05/11 07:22:32;;;;;;;2.70;2.33;;;;;;;41.73;22.56;95088.13;5069069;28;20653;-79
2022/05/11 07:24:58;;;;;;;3.70;2.50;;;;;;;41.84;22.49;95090.13;5080967;28;20193;-77
2022/05/11 07:27:26;;;;;;;2.85;1.80;;;;;;;41.97;21.96;95101.75;5073603;28;20232;-77
2022/05/11 07:29:54;;;;;;;2.45;2.25;;;;;;;42.02;22.01;95101.53;5087632;28;20635;-77
2022/05/11 07:32:22;;;;;;;2.20;2.10;;;;;;;42.06;22.16;95101.66;5084490;28;20193;-76
2022/05/11 07:34:50;;;;;;;2.10;1.88;;;;;;;42.04;21.77;95088.53;5069038;28;20194;-79
2022/05/11 07:37:18;;;;;;;2.92;2.40;;;;;;;42.06;21.93;95089.00;5072406;28;20198;-77
2022/05/11 07:39:45;;;;;;;3.20;2.30;;;;;;;42.04;22.14;95088.53;5082584;28;20193;-77
2022/05/11 07:42:12;;;;;;;2.40;2.20;;;;;;;42.00;21.95;95078.78;5084821;28;20200;-77
2022/05/11 07:44:40;;;;;;;3.00;2.60;;;;;;;42.05;21.72;95095.47;5089067;28;20185;-77
2022/05/11 07:47:10;;;;;;;6.30;2.67;;;;;;;42.03;21.49;95094.25;5076119;28;20220;-78
2022/05/11 07:49:37;;;;;;;3.08;2.33;;;;;;;41.90;21.52;95081.88;5081822;28;20231;-78
2022/05/11 07:52:07;;;;;;;3.55;2.47;;;;;;;41.77;21.62;95056.81;5072511;28;20304;-78
2022/05/11 07:54:34;;;;;;;3.58;2.60;;;;;;;41.81;21.78;95085.41;5079767;28;20201;-77
2022/05/11 07:59:57;;;;;;;3.72;2.90;;;;;;;41.65;22.17;95072.84;5083659;28;20188;-78
2022/05/11 08:02:27;;;;;;;3.65;2.47;;;;;;;41.67;21.98;95087.53;5073637;28;20193;-77
2022/05/11 08:04:57;;;;;;;2.42;2.22;;;;;;;41.61;21.82;95086.13;5082904;28;20189;-76
2022/05/11 08:07:27;;;;;;;2.75;2.55;;;;;;;41.46;22.21;95071.38;5081921;28;20220;-78
2022/05/11 08:09:57;;;;;;;4.18;2.58;;;;;;;41.42;21.66;95083.91;5079429;28;20189;-76
2022/05/11 08:12:24;;;;;;;3.08;2.42;;;;;;;41.32;22.08;95076.97;5084453;28;20185;-78
2022/05/11 08:14:51;;;;;;;3.15;2.70;;;;;;;41.04;22.02;95052.47;5069747;28;20247;-78
2022/05/11 08:17:24;;;;;;;3.60;2.78;;;;;;;41.15;22.20;95071.66;5082363;28;20193;-77
2022/05/11 08:19:51;;;;;;;3.22;2.67;;;;;;;41.06;21.96;95074.38;5072834;28;20657;-77
2022/05/11 08:22:19;;;;;;;4.32;2.65;;;;;;;40.86;21.74;95053.63;5083469;28;20193;-78
2022/05/11 08:24:47;;;;;;;3.15;2.70;;;;;;;40.87;22.14;95074.75;5080644;28;20243;-77
2022/05/11 08:27:17;;;;;;;2.53;2.33;;;;;;;40.77;21.95;95068.97;5077183;28;20222;-78
2022/05/11 08:35:13;;;;;;;4.45;2.45;;;;;;;40.40;22.38;95060.50;5084910;28;20256;-78
2022/05/11 08:37:40;;;;;;;4.28;2.45;;;;;;;40.28;22.16;95063.81;5083359;28;20713;-77
2022/05/11 08:40:13;;;;;;;2.60;2.30;;;;;;;40.13;22.33;95059.75;5089208;28;20189;-77
2022/05/11 08:42:40;;;;;;;2.65;2.40;;;;;;;40.03;22.43;95061.91;5083154;28;20186;-79
2022/05/11 08:45:11;;;;;;;4.70;2.53;;;;;;;39.89;22.36;95056.72;5081020;28;20190;-77
2022/05/11 08:47:44;;;;;;;4.00;2.47;;;;;;;39.67;22.62;95044.25;5078775;28;20210;-79
2022/05/11 08:50:13;;;;;;;2.90;2.58;;;;;;;39.63;22.57;95060.13;5075450;28;20213;-76
2022/05/11 08:52:47;;;;;;;2.40;2.20;;;;;;;39.49;22.51;95067.53;5074225;28;20226;-78
2022/05/11 08:55:31;;;;;;;2.60;2.30;;;;;;;37.67;22.71;94812.78;5071370;28;20253;-76
2022/05/11 08:58:02;;;;;;;3.90;2.55;;;;;;;39.10;22.55;95063.00;5078661;28;20217;-79
2022/05/11 09:00:29;;;;;;;3.22;2.67;;;;;;;38.97;22.67;95064.66;5082742;28;20198;-77
2022/05/11 09:03:01;;;;;;;2.78;1.90;;;;;;;38.81;22.77;95068.84;5090200;28;20637;-77
2022/05/11 09:05:30;;;;;;;2.80;2.17;;;;;;;38.61;22.57;95064.81;5083265;28;20219;-77
2022/05/11 09:07:59;;;;;;;2.60;2.22;;;;;;;38.44;22.76;95059.34;5076205;28;20593;-77
2022/05/11 09:10:32;;;;;;;2.42;1.95;;;;;;;38.20;22.77;95043.59;5082763;28;20214;-80
2022/05/11 09:13:02;;;;;;;3.05;2.00;;;;;;;38.13;23.21;95054.72;5090672;28;20205;-78
2022/05/11 09:15:57;;;;;;;2.15;1.95;;;;;;;37.89;22.74;95061.13;5091260;28;20197;-77
2022/05/11 09:18:36;;;;;;;3.00;1.83;;;;;;;37.51;23.19;95041.13;5067338;28;20228;-78
2022/05/11 09:21:19;;;;;;;3.72;2.05;;;;;;;37.42;23.04;95065.84;5082687;28;20202;-79
2022/05/11 09:24:02;;;;;;;1.70;1.60;;;;;;;37.05;23.47;95036.69;5080092;28;20585;-78
2022/05/11 09:26:44;;;;;;;3.42;1.98;;;;;;;37.01;23.56;95057.84;5082448;28;20232;-80
2022/05/11 09:29:21;;;;;;;2.42;2.22;;;;;;;36.81;23.53;95053.66;5087598;28;20210;-75
2022/05/11 09:31:50;;;;;;;3.45;2.17;;;;;;;36.64;23.74;95046.22;5059559;28;20271;-77
2022/05/11 09:34:27;;;;;;;3.13;2.28;;;;;;;36.24;23.83;95026.38;5062058;28;20186;-78
2022/05/11 09:36:59;;;;;;;3.60;2.00;;;;;;;35.86;23.63;94991.00;5073966;28;20197;-75
2022/05/11 09:39:28;;;;;;;2.63;2.03;;;;;;;35.99;24.03;95043.53;5088038;28;20201;-77
2022/05/11 09:42:12;;;;;;;2.88;1.98;;;;;;;35.82;24.21;95046.69;5062095;28;20194;-78
2022/05/11 09:44:44;;;;;;;5.30;2.15;;;;;;;35.57;24.27;95041.72;5076099;28;20196;-78
2022/05/11 09:47:27;;;;;;;3.42;2.10;;;;;;;35.37;24.54;95035.56;5080654;28;20281;-76
2022/05/11 09:49:55;;;;;;;2.22;2.03;;;;;;;35.22;24.58;95040.28;5082686;28;20221;-77
2022/05/11 09:52:35;;;;;;;3.17;2.10;;;;;;;35.05;24.76;95038.88;5088132;28;20778;-78
2022/05/11 09:55:13;;;;;;;2.95;2.08;;;;;;;34.89;24.95;95040.88;5084646;28;20201;-78
2022/05/11 09:57:52;;;;;;;2.50;2.30;;;;;;;34.67;25.06;95032.59;5078562;28;20193;-80
2022/05/11 10:00:22;;;;;;;2.50;2.30;;;;;;;34.49;24.99;95028.78;5077224;28;20278;-79
2022/05/11 10:02:51;;;;;;;1.98;1.88;;;;;;;34.41;25.39;95027.53;5078202;28;20178;-76
2022/05/11 10:05:24;;;;;;;4.15;2.30;;;;;;;34.10;25.23;94989.81;5070849;28;20611;-75
2022/05/11 10:08:06;;;;;;;2.90;2.30;;;;;;;34.26;25.66;95018.88;5083747;28;20214;-75
2022/05/11 10:10:38;;;;;;;2.38;2.05;;;;;;;34.07;25.84;94993.03;5080148;28;20197;-81
2022/05/11 10:13:32;;;;;;;2.85;1.90;;;;;;;34.14;25.60;95011.28;5085553;28;20246;-81
2022/05/11 10:21:53;;;;;;;4.80;1.90;;;;;;;33.96;25.82;95002.13;5076469;28;20194;-82
2022/05/11 10:24:47;;;;;;;2.47;2.03;;;;;;;33.69;25.57;94968.88;5070335;28;20198;-83
2022/05/11 10:27:21;;;;;;;2.22;2.05;;;;;;;33.55;25.99;94951.19;5089540;28;20196;-84
2022/05/11 10:30:09;;;;;;;3.42;2.17;;;;;;;33.82;25.73;94998.50;5089996;28;20201;-84
2022/05/11 10:32:52;;;;;;;2.40;2.30;;;;;;;33.80;25.96;94998.75;5077922;28;20217;-83
2022/05/11 10:35:23;;;;;;;2.85;2.00;;;;;;;33.79;25.75;95007.81;5082203;28;20656;-79
2022/05/11 10:38:10;;;;;;;2.20;2.10;;;;;;;33.75;26.07;94996.16;5073721;28;20560;-78
2022/05/11 10:40:48;;;;;;;3.53;2.00;;;;;;;33.76;26.07;95007.56;5075862;28;20174;-82
2022/05/11 10:43:31;;;;;;;2.35;2.15;;;;;;;33.70;26.18;94996.19;5083823;28;20193;-80
2022/05/11 10:46:06;;;;;;;2.22;2.08;;;;;;;33.78;26.05;95005.44;5087848;28;20182;-85
2022/05/11 10:48:55;;;;;;;3.63;2.08;;;;;;;33.79;26.05;95001.72;5077469;28;20216;-81
2022/05/11 10:51:30;;;;;;;1.98;1.88;;;;;;;33.75;25.91;94993.50;5079610;28;20312;-80
2022/05/11 10:54:06;;;;;;;3.70;2.15;;;;;;;33.47;26.27;94965.84;5070989;28;20195;-84
2022/05/11 10:56:54;;;;;;;2.17;1.95;;;;;;;33.60;26.05;94998.94;5086461;28;20189;-82
2022/05/11 10:59:45;;;;;;;2.50;2.08;;;;;;;33.51;26.24;95001.38;5078256;28;20265;-83
2022/05/11 11:02:47;;;;;;;3.55;2.10;;;;;;;33.41;25.98;94994.22;5087032;28;20216;-80
2022/05/11 11:05:25;;;;;;;6.30;2.00;;;;;;;33.09;26.20;94962.06;5089466;28;20197;-83
2022/05/11 11:08:08;;;;;;;2.13;2.03;;;;;;;32.66;26.29;94919.28;5079170;28;20220;-80
2022/05/11 11:10:41;;;;;;;2.13;1.92;;;;;;;32.94;26.23;94968.97;5087034;28;20185;-82
2022/05/11 11:13:31;;;;;;;2.15;1.98;;;;;;;32.83;26.13;94979.88;5089195;28;20212;-82
2022/05/11 11:16:02;;;;;;;2.50;2.30;;;;;;;32.82;26.64;94997.66;5077909;28;20194;-79
2022/05/11 11:18:35;;;;;;;2.72;2.50;;;;;;;32.49;26.84;94975.22;5082060;28;20194;-83
2022/05/11 11:21:03;;;;;;;3.45;2.40;;;;;;;32.16;26.83;94950.06;5069375;28;20198;-85
2022/05/11 11:23:36;;;;;;;4.35;2.35;;;;;;;32.40;27.02;95017.31;5086424;28;20677;-80
2022/05/11 11:26:05;;;;;;;3.70;2.25;;;;;;;32.25;27.34;95019.94;5089602;28;20197;-80
2022/05/11 11:28:34;;;;;;;6.45;2.22;;;;;;;31.55;27.36;94935.00;5089127;28;20222;-80
2022/05/11 11:31:19;;;;;;;3.78;2.30;;;;;;;31.85;27.92;95018.88;5084539;28;20190;-83
2022/05/11 11:34:18;;;;;;;5.18;2.45;;;;;;;31.67;27.97;95017.50;5077586;28;20280;-82
2022/05/11 11:36:46;;;;;;;4.80;2.70;;;;;;;31.52;28.48;95014.03;5080823;28;20193;-85
2022/05/11 11:39:34;;;;;;;3.55;2.85;;;;;;;31.35;28.39;95015.06;5077847;28;20191;-79
2022/05/11 11:42:08;;;;;;;2.78;2.50;;;;;;;31.21;28.37;95016.56;5079921;28;20194;-82
2022/05/11 11:44:41;;;;;;;4.20;3.13;;;;;;;31.08;28.62;95017.84;5086362;28;20185;-81
2022/05/11 11:47:36;;;;;;;4.45;2.95;;;;;;;31.03;28.46;95027.59;5070056;28;20201;-82
2022/05/11 11:50:11;;;;;;;3.10;2.47;;;;;;;30.93;29.12;95031.00;4985828;28;20228;-83
2022/05/11 11:52:40;;;;;;;4.25;2.40;;;;;;;30.82;29.18;95021.41;4987657;28;20291;-85
2022/05/11 11:55:15;;;;;;;3.05;2.50;;;;;;;30.73;29.33;95023.75;4982977;28;20204;-86
2022/05/11 11:57:42;;;;;;;4.38;2.40;;;;;;;30.66;29.20;95025.81;4989350;28;20441;-82
2022/05/11 12:00:51;;;;;;;5.03;2.50;;;;;;;30.18;29.49;94974.81;4991995;28;20219;-84
2022/05/11 12:03:22;;;;;;;3.05;2.40;;;;;;;30.51;29.39;95042.34;4975089;28;20207;-85
2022/05/11 12:15:01;;;;;;;3.20;2.83;;;;;;;30.44;29.39;95032.00;4991208;28;20185;-86
2022/05/11 12:17:27;;;;;;;2.53;2.33;;;;;;;29.89;29.90;95001.47;4936273;29;20234;-83
2022/05/11 12:20:00;;;;;;;3.05;2.53;;;;;;;30.00;30.00;95040.06;4933086;29;20615;-84
2022/05/11 12:22:29;;;;;;;4.07;2.15;;;;;;;29.91;29.92;95038.94;4933487;29;20199;-83
2022/05/11 12:25:03;;;;;;;3.92;2.10;;;;;;;29.78;30.39;95035.91;4930611;29;20231;-83
2022/05/11 12:27:33;;;;;;;5.20;2.47;;;;;;;29.72;30.11;95035.88;4987246;28;20584;-83